Terminal Aerodrome Forecast
Issued by NWS

Home | Current Version | Previous Version | Text Only | Print | Product List | Glossary On
Versions: 1 2 3 4 5 6 7 8 9 10 11 12 13
000
FTUS45 KGJT 051120
TAFRIL
TAF
KRIL 051120Z 0512/0612 06004KT P6SM FEW250
     FM051500 00000KT P6SM SCT250
     FM052100 25006KT P6SM SCT250
     FM052300 22009G15KT P6SM BKN250
     FM060700 15006KT P6SM BKN250
     FM061000 11007KT P6SM BKN250=

USA.gov is the U.S. government's official web portal to all federal, state and local government web resources and services.